createdAt,value
2019-05-28T00:00:27.274Z,99.99
2019-05-28T00:01:27.264Z,99.99
2019-05-28T00:02:27.226Z,99.92
2019-05-28T00:03:27.218Z,99.82
2019-05-28T00:04:27.206Z,99.99
2019-05-28T00:05:27.222Z,99.99
2019-05-28T00:06:27.230Z,99.92
2019-05-28T00:07:27.173Z,99.92
2019-05-28T00:08:27.157Z,99.99
2019-05-28T00:09:27.147Z,99.82
2019-05-28T00:10:27.139Z,99.99
2019-05-28T00:11:27.137Z,99.99
2019-05-28T00:12:27.145Z,99.72
2019-05-28T00:13:27.106Z,99.99
2019-05-28T00:14:27.098Z,99.99
2019-05-28T00:15:27.081Z,99.99
2019-05-28T00:16:27.079Z,99.99
2019-05-28T00:17:27.092Z,99.99
2019-05-28T00:18:27.065Z,99.99
2019-05-28T00:19:27.039Z,99.99
2019-05-28T00:20:27.042Z,99.99
2019-05-28T00:21:27.011Z,99.99
2019-05-28T00:22:27.096Z,99.99
2019-05-28T00:23:27.007Z,99.99
2019-05-28T00:24:27.013Z,99.99
2019-05-28T00:25:29.266Z,99.92
2019-05-28T00:26:26.962Z,99.99
2019-05-28T00:27:26.947Z,99.99
2019-05-28T00:28:26.963Z,99.99
2019-05-28T00:29:26.946Z,99.99
2019-05-28T00:30:26.945Z,99.99
2019-05-28T00:31:26.908Z,99.99
2019-05-28T00:32:26.891Z,99.99
2019-05-28T00:33:26.918Z,99.99
2019-05-28T00:34:26.886Z,99.99
2019-05-28T00:35:26.874Z,99.99
2019-05-28T00:36:26.872Z,99.99
2019-05-28T00:37:26.838Z,99.99
2019-05-28T00:38:26.827Z,99.99
2019-05-28T00:39:26.832Z,99.99
2019-05-28T00:40:26.814Z,99.99
2019-05-28T00:41:26.802Z,99.99
2019-05-28T00:42:26.810Z,99.99
2019-05-28T00:43:26.772Z,99.99
2019-05-28T00:44:26.787Z,99.99
2019-05-28T00:45:26.752Z,99.99
2019-05-28T00:46:27.301Z,99.99
2019-05-28T00:47:26.736Z,99.99
2019-05-28T00:48:26.716Z,99.99
2019-05-28T00:49:26.704Z,99.99
2019-05-28T00:50:26.700Z,99.99
2019-05-28T00:51:26.715Z,99.99
2019-05-28T00:52:26.685Z,99.99
2019-05-28T00:53:26.670Z,99.99
2019-05-28T00:54:26.685Z,99.99
2019-05-28T00:55:26.642Z,99.99
2019-05-28T00:56:26.630Z,99.99
2019-05-28T00:57:26.631Z,99.99
2019-05-28T00:58:26.638Z,99.99
2019-05-28T00:59:26.636Z,99.99
2019-05-28T01:00:36.477Z,99.99
2019-05-28T01:01:26.573Z,99.99
2019-05-28T01:02:26.558Z,99.99
2019-05-28T01:03:26.566Z,99.99
2019-05-28T01:04:26.584Z,99.99
2019-05-28T01:05:26.546Z,99.99
2019-05-28T01:06:26.510Z,99.99
2019-05-28T01:07:26.507Z,99.99
2019-05-28T01:08:26.489Z,99.99
2019-05-28T01:09:26.491Z,99.99
2019-05-28T01:10:26.535Z,99.99
2019-05-28T01:11:26.487Z,99.99
2019-05-28T01:12:26.437Z,99.99
2019-05-28T01:13:26.438Z,99.99
2019-05-28T01:14:26.421Z,99.99
2019-05-28T01:15:26.420Z,99.99
2019-05-28T01:16:26.452Z,99.99
2019-05-28T01:17:26.386Z,99.99
2019-05-28T01:18:26.372Z,99.99
2019-05-28T01:19:26.375Z,99.99
2019-05-28T01:20:26.353Z,99.99
2019-05-28T01:21:26.370Z,99.99
2019-05-28T01:22:26.360Z,99.99
2019-05-28T01:23:26.316Z,99.99
2019-05-28T01:24:26.307Z,99.99
2019-05-28T01:25:26.292Z,99.99
2019-05-28T01:26:26.305Z,99.99
2019-05-28T01:27:26.290Z,99.99
2019-05-28T01:28:26.287Z,99.99
2019-05-28T01:29:26.250Z,99.99
2019-05-28T01:30:26.233Z,99.99
2019-05-28T01:31:26.246Z,99.99
2019-05-28T01:32:26.245Z,99.99
2019-05-28T01:33:26.208Z,99.99
2019-05-28T01:34:26.218Z,99.99
2019-05-28T01:35:26.186Z,99.99
2019-05-28T01:36:26.169Z,99.99
2019-05-28T01:37:26.157Z,99.99
2019-05-28T01:38:26.161Z,99.99
2019-05-28T01:39:26.158Z,99.99
2019-05-28T01:40:26.172Z,99.99
2019-05-28T01:41:26.110Z,99.99
2019-05-28T01:42:26.100Z,99.99
2019-05-28T01:43:26.179Z,99.99
2019-05-28T01:44:26.086Z,99.99
2019-05-28T01:45:26.093Z,99.99
2019-05-28T01:46:26.156Z,99.99
2019-05-28T01:47:26.052Z,99.99
2019-05-28T01:48:26.035Z,99.99
2019-05-28T01:49:26.061Z,99.99
2019-05-28T01:50:26.025Z,99.99
2019-05-28T01:51:26.022Z,99.99
2019-05-28T01:52:25.986Z,99.99
2019-05-28T01:53:25.977Z,99.99
2019-05-28T01:54:26.005Z,99.99
2019-05-28T01:55:25.975Z,99.99
2019-05-28T01:56:25.954Z,99.99
2019-05-28T01:57:25.932Z,99.99
2019-05-28T01:58:25.922Z,99.99
2019-05-28T01:59:25.916Z,99.99
2019-05-28T02:00:25.929Z,99.99
2019-05-28T02:01:25.939Z,99.99
2019-05-28T02:02:25.900Z,99.99
2019-05-28T02:03:25.862Z,99.99
2019-05-28T02:04:25.855Z,99.99
2019-05-28T02:05:25.875Z,99.99
2019-05-28T02:06:25.831Z,99.99
2019-05-28T02:07:25.836Z,99.99
2019-05-28T02:08:25.836Z,99.99
2019-05-28T02:09:25.802Z,99.99
2019-05-28T02:10:25.787Z,99.99
2019-05-28T02:11:25.805Z,99.99
2019-05-28T02:12:25.767Z,99.99
2019-05-28T02:13:25.765Z,99.99
2019-05-28T02:14:25.759Z,99.99
2019-05-28T02:15:25.743Z,99.99
2019-05-28T02:16:25.782Z,99.99
2019-05-28T02:17:25.715Z,99.99
2019-05-28T02:18:25.707Z,99.99
2019-05-28T02:19:25.711Z,99.99
2019-05-28T02:20:25.671Z,99.99
2019-05-28T02:21:25.661Z,99.99
2019-05-28T02:22:25.670Z,99.99
2019-05-28T02:23:25.639Z,99.99
2019-05-28T02:24:25.648Z,99.99
2019-05-28T02:25:25.647Z,99.99
2019-05-28T02:26:25.636Z,99.99
2019-05-28T02:27:25.601Z,99.99
2019-05-28T02:28:25.582Z,99.99
2019-05-28T02:29:25.577Z,99.99
2019-05-28T02:30:25.584Z,99.99
2019-05-28T02:31:27.998Z,99.99
2019-05-28T02:32:25.598Z,99.99
2019-05-28T02:33:25.529Z,99.99
2019-05-28T02:34:25.530Z,99.99
2019-05-28T02:35:25.521Z,99.99
2019-05-28T02:36:25.512Z,99.99
2019-05-28T02:37:25.501Z,99.99
2019-05-28T02:38:25.472Z,99.99
2019-05-28T02:39:25.460Z,99.99
2019-05-28T02:40:25.448Z,99.99
2019-05-28T02:41:25.452Z,99.99
2019-05-28T02:42:25.446Z,99.99
2019-05-28T02:43:25.430Z,99.99
2019-05-28T02:44:25.407Z,99.99
2019-05-28T02:45:25.387Z,99.99
2019-05-28T02:46:25.381Z,99.99
2019-05-28T02:47:25.384Z,99.99
2019-05-28T02:48:25.400Z,99.99
2019-05-28T02:49:25.379Z,99.99
2019-05-28T02:50:25.333Z,99.99
2019-05-28T02:51:25.321Z,99.99
2019-05-28T02:52:25.334Z,99.99
2019-05-28T02:53:25.319Z,99.99
2019-05-28T02:54:25.334Z,99.99
2019-05-28T02:55:25.275Z,99.99
2019-05-28T02:56:25.261Z,99.99
2019-05-28T02:57:25.255Z,99.99
2019-05-28T02:58:25.247Z,99.99
2019-05-28T02:59:25.275Z,99.99
2019-05-28T03:00:25.235Z,99.99
2019-05-28T03:01:25.210Z,99.99
2019-05-28T03:02:25.199Z,99.99
2019-05-28T03:03:25.182Z,99.99
2019-05-28T03:04:25.186Z,99.99
2019-05-28T03:05:25.218Z,99.99
2019-05-28T03:06:25.182Z,99.99
2019-05-28T03:07:25.139Z,99.99
2019-05-28T03:08:25.125Z,99.99
2019-05-28T03:09:25.117Z,99.99
2019-05-28T03:10:25.151Z,99.99
2019-05-28T03:11:25.111Z,99.99
2019-05-28T03:12:25.113Z,99.99
2019-05-28T03:13:25.068Z,99.99
2019-05-28T03:14:25.063Z,99.99
2019-05-28T03:15:25.051Z,99.99
2019-05-28T03:16:25.074Z,99.99
2019-05-28T03:17:25.064Z,99.99
2019-05-28T03:18:25.018Z,99.99
2019-05-28T03:19:25.019Z,99.99
2019-05-28T03:20:24.999Z,99.99
2019-05-28T03:21:25.035Z,99.99
2019-05-28T03:22:24.983Z,99.99
2019-05-28T03:23:24.989Z,99.99
2019-05-28T03:24:24.970Z,99.99
2019-05-28T03:25:24.942Z,99.99
2019-05-28T03:26:24.929Z,99.99
2019-05-28T03:27:24.937Z,99.99
2019-05-28T03:28:24.918Z,99.99
2019-05-28T03:29:24.915Z,99.99
2019-05-28T03:30:24.890Z,99.99
2019-05-28T03:31:24.883Z,99.99
2019-05-28T03:32:24.903Z,99.99
2019-05-28T03:33:24.862Z,99.99
2019-05-28T03:34:24.861Z,99.99
2019-05-28T03:35:24.906Z,99.99
2019-05-28T03:36:24.820Z,99.99
2019-05-28T03:37:24.808Z,99.99
2019-05-28T03:38:24.810Z,99.99
2019-05-28T03:39:24.800Z,99.99
2019-05-28T03:40:24.793Z,99.99
2019-05-28T03:41:24.758Z,99.99
2019-05-28T03:42:24.796Z,99.99
2019-05-28T03:43:24.734Z,99.99
2019-05-28T03:44:24.732Z,99.99
2019-05-28T03:45:24.730Z,99.99
2019-05-28T03:46:24.714Z,99.99
2019-05-28T03:47:24.746Z,99.99
2019-05-28T03:48:24.682Z,99.99
2019-05-28T03:49:24.673Z,99.99
2019-05-28T03:50:24.664Z,99.99
2019-05-28T03:51:24.652Z,99.99
2019-05-28T03:52:24.648Z,99.99
2019-05-28T03:53:24.631Z,99.99
2019-05-28T03:54:24.610Z,99.99
2019-05-28T03:55:24.604Z,99.99
2019-05-28T03:56:24.600Z,99.99
2019-05-28T03:57:24.590Z,99.99
2019-05-28T03:58:24.622Z,99.99
2019-05-28T03:59:24.554Z,99.99
2019-05-28T04:00:24.542Z,99.99
2019-05-28T04:01:25.326Z,99.99
2019-05-28T04:02:24.536Z,99.99
2019-05-28T04:03:24.524Z,99.99
2019-05-28T04:04:24.538Z,99.99
2019-05-28T04:05:24.488Z,99.99
2019-05-28T04:06:24.479Z,99.99
2019-05-28T04:07:24.464Z,99.99
2019-05-28T04:08:24.471Z,99.99
2019-05-28T04:09:24.485Z,99.99
2019-05-28T04:10:24.461Z,99.99
2019-05-28T04:11:24.419Z,99.99
2019-05-28T04:12:24.411Z,99.99
2019-05-28T04:13:24.409Z,99.99
2019-05-28T04:14:24.434Z,99.99
2019-05-28T04:15:24.398Z,99.99
2019-05-28T04:16:24.392Z,99.99
2019-05-28T04:17:24.356Z,99.99
2019-05-28T04:18:24.352Z,99.99
2019-05-28T04:19:24.334Z,99.99
2019-05-28T04:20:24.342Z,99.99
2019-05-28T04:21:24.331Z,99.99
2019-05-28T04:22:24.296Z,99.99
2019-05-28T04:23:24.291Z,99.99
2019-05-28T04:24:24.285Z,99.99
2019-05-28T04:25:24.320Z,99.99
2019-05-28T04:26:24.263Z,99.99
2019-05-28T04:27:24.268Z,99.99
2019-05-28T04:28:24.233Z,99.99
2019-05-28T04:29:24.251Z,99.99
2019-05-28T04:30:24.211Z,99.99
2019-05-28T04:31:24.224Z,99.99
2019-05-28T04:32:39.405Z,99.99
2019-05-28T04:33:25.177Z,99.99
2019-05-28T04:34:24.164Z,99.99
2019-05-28T04:35:24.177Z,99.99
2019-05-28T04:36:24.193Z,99.99
2019-05-28T04:37:24.151Z,99.99
2019-05-28T04:38:24.144Z,99.99
2019-05-28T04:39:24.139Z,99.99
2019-05-28T04:40:24.140Z,99.99
2019-05-28T04:41:24.093Z,99.99
2019-05-28T04:42:24.088Z,99.99
2019-05-28T04:43:24.077Z,99.99
2019-05-28T04:44:24.071Z,99.99
2019-05-28T04:45:24.042Z,99.99
2019-05-28T04:46:24.029Z,99.99
2019-05-28T04:47:24.049Z,99.99
2019-05-28T04:48:24.019Z,99.99
2019-05-28T04:49:24.005Z,99.99
2019-05-28T04:50:24.782Z,99.99
2019-05-28T04:51:23.980Z,99.99
2019-05-28T04:52:23.979Z,99.99
2019-05-28T04:53:23.962Z,99.99
2019-05-28T04:54:23.947Z,99.99
2019-05-28T04:55:23.943Z,99.99
2019-05-28T04:56:23.933Z,99.99
2019-05-28T04:57:23.915Z,99.99
2019-05-28T04:58:23.945Z,99.99
2019-05-28T04:59:23.892Z,99.99
2019-05-28T05:00:23.889Z,99.99
2019-05-28T05:01:23.878Z,99.99
2019-05-28T05:02:23.867Z,99.99
2019-05-28T05:03:23.841Z,99.99
2019-05-28T05:04:23.850Z,99.99
2019-05-28T05:05:23.826Z,99.99
2019-05-28T05:06:23.824Z,99.99
2019-05-28T05:07:23.819Z,99.99
2019-05-28T05:08:23.810Z,99.99
2019-05-28T05:09:23.824Z,99.99
2019-05-28T05:10:23.764Z,99.99
2019-05-28T05:11:23.756Z,99.99
2019-05-28T05:12:23.754Z,99.92
2019-05-28T05:13:23.740Z,99.99
2019-05-28T05:14:23.767Z,99.99
2019-05-28T05:15:23.707Z,99.99
2019-05-28T05:16:23.693Z,99.99
2019-05-28T05:17:23.704Z,99.99
2019-05-28T05:18:23.680Z,99.99
2019-05-28T05:19:23.696Z,99.99
2019-05-28T05:20:23.689Z,99.99
2019-05-28T05:21:23.638Z,99.99
2019-05-28T05:22:23.626Z,99.99
2019-05-28T05:23:23.624Z,99.99
2019-05-28T05:24:23.640Z,99.99
2019-05-28T05:25:23.651Z,99.99
2019-05-28T05:26:23.616Z,99.99
2019-05-28T05:27:23.573Z,99.99
2019-05-28T05:28:23.567Z,99.77
2019-05-28T05:29:23.554Z,99.99
2019-05-28T05:30:23.557Z,99.67
2019-05-28T05:31:23.579Z,99.99
2019-05-28T05:32:27.501Z,99.99
2019-05-28T05:33:23.586Z,99.99
2019-05-28T05:34:23.500Z,99.99
2019-05-28T05:35:23.546Z,99.99
2019-05-28T05:36:23.843Z,99.98
2019-05-28T05:37:23.505Z,99.57
2019-05-28T05:38:23.456Z,99.67
2019-05-28T05:39:23.456Z,99.67
2019-05-28T05:40:23.437Z,98.86
2019-05-28T05:41:23.435Z,98.35
2019-05-28T05:42:23.483Z,98.66
2019-05-28T05:43:23.433Z,98.25
2019-05-28T05:44:23.381Z,98.66
2019-05-28T05:45:23.397Z,98.70
2019-05-28T05:46:23.359Z,98.14
2019-05-28T05:47:23.381Z,98.25
2019-05-28T05:48:23.359Z,98.45
2019-05-28T05:49:23.355Z,98.86
2019-05-28T05:50:23.322Z,98.66
2019-05-28T05:51:23.330Z,98.66
2019-05-28T05:52:23.294Z,98.55
2019-05-28T05:53:23.409Z,98.25
2019-05-28T05:54:23.319Z,98.66
2019-05-28T05:55:23.311Z,98.45
2019-05-28T05:56:23.299Z,98.66
2019-05-28T05:57:23.235Z,98.75
2019-05-28T05:58:23.269Z,99.16
2019-05-28T05:59:23.221Z,98.96
2019-05-28T06:00:23.854Z,98.86
2019-05-28T06:01:23.245Z,98.55
2019-05-28T06:02:23.195Z,98.66
2019-05-28T06:03:39.011Z,98.75
2019-05-28T06:04:23.183Z,98.91
2019-05-28T06:05:23.164Z,99.37
2019-05-28T06:06:23.162Z,98.81
2019-05-28T06:07:23.162Z,98.71
2019-05-28T06:08:23.132Z,98.61
2019-05-28T06:09:23.144Z,98.41
2019-05-28T06:10:23.112Z,98.61
2019-05-28T06:11:23.100Z,98.30
2019-05-28T06:12:23.069Z,98.50
2019-05-28T06:13:23.056Z,97.39
2019-05-28T06:14:23.047Z,97.60
2019-05-28T06:15:23.124Z,97.80
2019-05-28T06:16:23.041Z,96.42
2019-05-28T06:17:23.045Z,96.62
2019-05-28T06:18:23.877Z,96.88
2019-05-28T06:19:22.991Z,97.03
2019-05-28T06:20:23.047Z,97.03
2019-05-28T06:21:23.008Z,97.13
2019-05-28T06:22:22.978Z,97.19
2019-05-28T06:23:22.966Z,97.64
2019-05-28T06:24:22.934Z,97.60
2019-05-28T06:25:22.929Z,97.44
2019-05-28T06:26:22.921Z,97.44
2019-05-28T06:27:22.904Z,97.64
2019-05-28T06:28:22.903Z,97.84
2019-05-28T06:29:22.917Z,97.84
2019-05-28T06:30:23.859Z,97.74
2019-05-28T06:31:22.902Z,97.74
2019-05-28T06:32:22.845Z,97.94
2019-05-28T06:33:22.840Z,98.66
2019-05-28T06:34:22.839Z,98.05
2019-05-28T06:35:22.881Z,98.35
2019-05-28T06:36:22.807Z,97.94
2019-05-28T06:37:22.798Z,98.25
2019-05-28T06:38:22.799Z,98.14
2019-05-28T06:39:22.778Z,98.14
2019-05-28T06:41:31.737Z,97.53
2019-05-28T06:42:36.350Z,97.13
2019-05-28T06:43:32.595Z,97.44
2019-05-28T06:44:31.621Z,98.35
2019-05-28T06:45:31.666Z,97.84
2019-05-28T06:46:31.569Z,97.89
2019-05-28T06:47:31.551Z,98.96
2019-05-28T06:48:31.557Z,98.10
2019-05-28T06:49:31.535Z,98.10
2019-05-28T06:50:31.552Z,98.20
2019-05-28T06:51:31.514Z,97.69
2019-05-28T06:52:31.497Z,97.69
2019-05-28T06:53:31.524Z,96.88
2019-05-28T06:54:31.476Z,97.60
2019-05-28T06:55:31.470Z,97.29
2019-05-28T06:56:31.465Z,97.49
2019-05-28T06:57:31.451Z,98.50
2019-05-28T06:58:39.302Z,97.33
2019-05-28T06:59:32.488Z,96.78
2019-05-28T07:00:31.433Z,97.39
2019-05-28T07:01:31.430Z,97.39
2019-05-28T07:02:31.453Z,97.60
2019-05-28T07:03:31.397Z,97.49
2019-05-28T07:04:33.023Z,96.01
2019-05-28T07:05:31.366Z,96.62
2019-05-28T07:06:31.343Z,95.61
2019-05-28T07:07:31.340Z,95.86
2019-05-28T07:08:31.347Z,96.22
2019-05-28T07:09:31.308Z,96.01
2019-05-28T07:10:31.305Z,96.17
2019-05-28T07:11:31.288Z,95.86
2019-05-28T07:12:31.276Z,96.62
2019-05-28T07:13:31.269Z,96.88
2019-05-28T07:14:31.289Z,96.68
2019-05-28T07:15:32.520Z,96.98
2019-05-28T07:16:31.289Z,96.78
2019-05-28T07:17:31.219Z,96.78
2019-05-28T07:18:31.210Z,95.66
2019-05-28T07:19:31.200Z,95.97
2019-05-28T07:20:31.236Z,95.56
2019-05-28T07:21:31.190Z,95.97
2019-05-28T07:22:31.199Z,96.23
2019-05-28T07:23:31.175Z,95.46
2019-05-28T07:24:31.165Z,95.82
2019-05-28T07:25:31.141Z,95.15
2019-05-28T07:26:31.118Z,95.66
2019-05-28T07:27:31.125Z,95.36
2019-05-28T07:28:31.110Z,94.95
2019-05-28T07:29:31.163Z,95.72
2019-05-28T07:30:31.101Z,94.95
2019-05-28T07:31:31.082Z,94.90
2019-05-28T07:32:31.088Z,94.80
2019-05-28T07:33:34.793Z,95.01
2019-05-28T07:34:31.687Z,94.70
2019-05-28T07:35:44.605Z,94.60
2019-05-28T07:36:32.049Z,94.66
2019-05-28T07:37:30.995Z,94.05
2019-05-28T07:38:31.046Z,93.79
2019-05-28T07:39:30.986Z,93.79
2019-05-28T07:40:32.378Z,93.48
2019-05-28T07:41:30.969Z,94.09
2019-05-28T07:42:33.020Z,95.41
2019-05-28T07:43:30.958Z,95.10
2019-05-28T07:44:30.921Z,95.78
2019-05-28T07:45:30.975Z,96.28
2019-05-28T07:46:30.899Z,96.59
2019-05-28T07:47:30.892Z,95.37
2019-05-28T07:48:30.876Z,93.90
2019-05-28T07:49:30.864Z,93.24
2019-05-28T07:50:30.857Z,93.03
2019-05-28T07:51:30.842Z,92.93
2019-05-28T07:52:30.874Z,91.56
2019-05-28T07:53:40.135Z,92.48
2019-05-28T07:54:31.814Z,91.67
2019-05-28T07:55:30.797Z,90.96
2019-05-28T07:56:30.846Z,91.06
2019-05-28T07:57:30.776Z,90.39
2019-05-28T07:58:30.765Z,91.20
2019-05-28T07:59:30.787Z,92.07
2019-05-28T08:00:30.741Z,92.52
2019-05-28T08:01:30.736Z,92.58
2019-05-28T08:02:30.750Z,92.38
2019-05-28T08:03:30.718Z,91.56
2019-05-28T08:04:46.267Z,91.61
2019-05-28T08:05:31.707Z,90.86
2019-05-28T08:06:30.706Z,90.59
2019-05-28T08:07:30.813Z,91.47
2019-05-28T08:08:30.677Z,92.38
2019-05-28T08:09:30.643Z,92.38
2019-05-28T08:10:30.634Z,90.45
2019-05-28T08:11:30.672Z,91.42
2019-05-28T08:12:30.692Z,91.32
2019-05-28T08:13:40.044Z,90.41
2019-05-28T08:14:31.611Z,90.92
2019-05-28T08:15:30.584Z,89.04
2019-05-28T08:16:30.570Z,90.57
2019-05-28T08:17:30.591Z,91.38
2019-05-28T08:18:30.616Z,90.67
2019-05-28T08:19:30.528Z,89.04
2019-05-28T08:20:30.533Z,89.19
2019-05-28T08:21:32.428Z,90.47
2019-05-28T08:22:41.664Z,89.35
2019-05-28T08:23:31.511Z,89.15
2019-05-28T08:24:30.473Z,88.75
2019-05-28T08:25:46.182Z,89.15
2019-05-28T08:26:31.454Z,90.88
2019-05-28T08:27:30.461Z,89.04
2019-05-28T08:28:30.548Z,90.73
2019-05-28T08:29:30.640Z,91.13
2019-05-28T08:30:30.905Z,88.90
2019-05-28T08:31:30.417Z,89.81
2019-05-28T08:32:30.611Z,90.36
2019-05-28T08:33:30.400Z,89.15
2019-05-28T08:34:30.411Z,88.84
2019-05-28T08:35:30.373Z,88.58
2019-05-28T08:36:31.111Z,88.99
2019-05-28T08:37:30.341Z,90.51
2019-05-28T08:38:30.346Z,88.48
2019-05-28T08:39:33.348Z,87.61
2019-05-28T08:40:30.314Z,89.23
2019-05-28T08:41:30.339Z,89.33
2019-05-28T08:42:30.652Z,89.43
2019-05-28T08:43:30.265Z,89.13
2019-05-28T08:44:30.420Z,90.14
2019-05-28T08:45:30.389Z,90.35
2019-05-28T08:46:30.319Z,88.93
2019-05-28T08:47:30.422Z,90.45
2019-05-28T08:48:30.229Z,90.45
2019-05-28T08:49:30.297Z,91.47
2019-05-28T08:50:34.221Z,90.90
2019-05-28T08:51:30.191Z,90.35
2019-05-28T08:52:30.207Z,89.48
2019-05-28T08:53:30.160Z,91.00
2019-05-28T08:54:30.191Z,90.59
2019-05-28T08:55:30.130Z,91.51
2019-05-28T08:56:30.224Z,90.70
2019-05-28T08:57:30.120Z,88.97
2019-05-28T08:58:30.098Z,89.88
2019-05-28T08:59:30.189Z,89.48
2019-05-28T09:00:30.082Z,91.00
2019-05-28T09:01:30.310Z,88.97
2019-05-28T09:02:30.078Z,88.26
2019-05-28T09:03:30.087Z,90.09
2019-05-28T09:04:30.175Z,91.20
2019-05-28T09:05:30.027Z,89.03
2019-05-28T09:06:30.019Z,90.35
2019-05-28T09:07:30.088Z,87.24
2019-05-28T09:08:39.392Z,88.87
2019-05-28T09:09:31.197Z,88.52
2019-05-28T09:10:30.031Z,88.52
2019-05-28T09:11:30.029Z,88.42
2019-05-28T09:12:29.986Z,88.12
2019-05-28T09:13:30.001Z,88.12
2019-05-28T09:14:53.883Z,87.30
2019-05-28T09:15:30.936Z,86.29
2019-05-28T09:16:29.901Z,87.30
2019-05-28T09:17:30.112Z,86.39
2019-05-28T09:18:29.952Z,87.51
2019-05-28T09:19:29.976Z,85.84
2019-05-28T09:20:29.941Z,85.78
2019-05-28T09:21:30.818Z,87.97
2019-05-28T09:22:29.851Z,86.25
2019-05-28T09:23:29.896Z,88.07
2019-05-28T09:24:29.852Z,87.51
2019-05-28T09:25:29.831Z,86.76
2019-05-28T09:26:29.823Z,87.37
2019-05-28T09:27:29.795Z,88.01
2019-05-28T09:28:31.168Z,88.18
2019-05-28T09:29:29.826Z,88.78
2019-05-28T09:30:29.793Z,90.26
2019-05-28T09:31:29.827Z,87.83
2019-05-28T09:32:29.722Z,89.04
2019-05-28T09:33:29.758Z,89.76
2019-05-28T09:34:29.805Z,89.04
2019-05-28T09:35:44.233Z,88.23
2019-05-28T09:36:30.943Z,85.60
2019-05-28T09:37:29.740Z,86.35
2019-05-28T09:38:29.745Z,87.87
2019-05-28T09:39:29.693Z,87.37
2019-05-28T09:40:48.273Z,87.67
2019-05-28T09:41:30.698Z,89.15
2019-05-28T09:42:29.624Z,88.38
2019-05-28T09:43:29.626Z,88.54
2019-05-28T09:44:29.633Z,88.03
2019-05-28T09:45:29.598Z,88.13
2019-05-28T09:46:29.568Z,86.71
2019-05-28T09:47:29.557Z,85.96
2019-05-28T09:48:29.578Z,86.91
2019-05-28T09:49:29.529Z,87.83
2019-05-28T09:50:31.119Z,86.91
2019-05-28T09:51:29.610Z,84.78
2019-05-28T09:52:29.518Z,85.80
2019-05-28T09:53:29.510Z,86.00
2019-05-28T09:54:29.471Z,87.52
2019-05-28T09:55:29.546Z,87.02
2019-05-28T09:56:32.749Z,85.50
2019-05-28T09:57:29.489Z,87.02
2019-05-28T09:58:29.482Z,87.99
2019-05-28T09:59:41.261Z,87.22
2019-05-28T10:00:30.448Z,85.96
2019-05-28T10:01:29.398Z,85.66
2019-05-28T10:02:29.408Z,87.28
2019-05-28T10:03:29.371Z,86.16
2019-05-28T10:04:46.251Z,86.41
2019-05-28T10:05:30.351Z,87.99
2019-05-28T10:06:37.110Z,86.57
2019-05-28T10:07:30.344Z,87.08
2019-05-28T10:08:29.319Z,87.79
2019-05-28T10:09:29.304Z,87.28
2019-05-28T10:10:29.389Z,87.12
2019-05-28T10:11:29.313Z,88.03
2019-05-28T10:12:29.275Z,87.22
2019-05-28T10:13:39.102Z,88.13
2019-05-28T10:14:30.264Z,88.95
2019-05-28T10:15:29.312Z,88.95
2019-05-28T10:16:29.249Z,88.75
2019-05-28T10:17:29.311Z,87.26
2019-05-28T10:18:29.224Z,86.35
2019-05-28T10:19:29.199Z,88.28
2019-05-28T10:20:29.188Z,88.89
2019-05-28T10:21:29.196Z,87.10
2019-05-28T10:22:29.193Z,88.12
2019-05-28T10:23:29.166Z,89.23
2019-05-28T10:24:29.325Z,89.33
2019-05-28T10:25:29.133Z,90.86
2019-05-28T10:26:29.154Z,89.28
2019-05-28T10:27:29.130Z,88.52
2019-05-28T10:28:29.102Z,88.52
2019-05-28T10:29:29.090Z,88.21
2019-05-28T10:30:29.143Z,89.54
2019-05-28T10:31:29.070Z,89.28
2019-05-28T10:32:29.073Z,89.28
2019-05-28T10:33:29.050Z,89.88
2019-05-28T10:34:29.038Z,90.55
2019-05-28T10:35:29.057Z,90.86
2019-05-28T10:36:35.919Z,88.21
2019-05-28T10:37:30.036Z,88.32
2019-05-28T10:38:28.990Z,89.43
2019-05-28T10:39:28.980Z,90.55
2019-05-28T10:40:28.971Z,91.06
2019-05-28T10:41:28.965Z,91.56
2019-05-28T10:42:28.943Z,91.16
2019-05-28T10:43:28.954Z,90.90
2019-05-28T10:44:28.921Z,91.87
2019-05-28T10:45:28.915Z,92.07
2019-05-28T10:46:28.893Z,91.77
2019-05-28T10:47:28.894Z,91.61
2019-05-28T10:48:28.905Z,90.59
2019-05-28T10:49:28.861Z,90.59
2019-05-28T10:50:28.862Z,89.68
2019-05-28T10:51:28.836Z,88.20
2019-05-28T10:52:28.826Z,88.40
2019-05-28T10:53:28.830Z,88.10
2019-05-28T10:54:28.825Z,87.99
2019-05-28T10:55:28.794Z,88.30
2019-05-28T10:56:28.841Z,88.91
2019-05-28T10:57:28.796Z,87.99
2019-05-28T10:58:28.803Z,88.60
2019-05-28T10:59:28.959Z,88.40
2019-05-28T11:00:28.739Z,87.89
2019-05-28T11:01:28.732Z,88.87
2019-05-28T11:02:28.762Z,88.46
2019-05-28T11:03:28.721Z,87.34
2019-05-28T11:04:28.711Z,87.65
2019-05-28T11:05:28.687Z,88.16
2019-05-28T11:06:28.686Z,89.07
2019-05-28T11:07:28.668Z,87.65
2019-05-28T11:08:28.648Z,88.06
2019-05-28T11:09:28.640Z,87.75
2019-05-28T11:10:28.667Z,87.45
2019-05-28T11:11:28.625Z,87.38
2019-05-28T11:12:28.642Z,87.75
2019-05-28T11:13:28.591Z,87.55
2019-05-28T11:14:28.674Z,88.97
2019-05-28T11:15:28.576Z,88.26
2019-05-28T11:16:28.569Z,87.95
2019-05-28T11:17:28.585Z,87.55
2019-05-28T11:18:28.540Z,87.65
2019-05-28T11:19:28.527Z,88.20
2019-05-28T11:20:28.529Z,89.28
2019-05-28T11:21:28.553Z,88.36
2019-05-28T11:22:28.496Z,89.37
2019-05-28T11:23:28.523Z,90.39
2019-05-28T11:24:28.497Z,90.80
2019-05-28T11:25:28.462Z,89.28
2019-05-28T11:26:28.452Z,89.07
2019-05-28T11:27:28.484Z,88.56
2019-05-28T11:28:28.427Z,89.28
2019-05-28T11:29:28.417Z,88.16
2019-05-28T11:30:28.451Z,88.87
2019-05-28T11:31:28.405Z,87.85
2019-05-28T11:32:28.419Z,88.52
2019-05-28T11:33:28.370Z,88.06
2019-05-28T11:34:28.371Z,88.62
2019-05-28T11:35:28.400Z,89.23
2019-05-28T11:36:28.357Z,87.51
2019-05-28T11:37:28.343Z,87.92
2019-05-28T11:38:28.357Z,87.71
2019-05-28T11:39:28.330Z,89.03
2019-05-28T11:40:30.092Z,87.10
2019-05-28T11:41:41.345Z,88.62
2019-05-28T11:42:29.268Z,90.35
2019-05-28T11:43:28.277Z,89.54
2019-05-28T11:44:28.257Z,90.35
2019-05-28T11:45:28.252Z,90.66
2019-05-28T11:46:28.268Z,90.45
2019-05-28T11:47:28.245Z,90.71
2019-05-28T11:48:28.243Z,89.43
2019-05-28T11:49:28.196Z,89.03
2019-05-28T11:50:28.197Z,89.33
2019-05-28T11:51:28.222Z,90.25
2019-05-28T11:52:28.201Z,88.12
2019-05-28T11:53:28.165Z,88.52
2019-05-28T11:54:28.146Z,88.12
2019-05-28T11:55:28.156Z,89.23
2019-05-28T11:56:28.124Z,90.66
2019-05-28T11:57:28.144Z,87.87
2019-05-28T11:58:28.098Z,88.42
2019-05-28T11:59:28.082Z,89.09
2019-05-28T12:00:28.099Z,89.59
2019-05-28T12:01:34.240Z,89.59
2019-05-28T12:02:29.090Z,90.51
2019-05-28T12:03:28.051Z,87.87
2019-05-28T12:04:28.035Z,87.43
2019-05-28T12:05:28.026Z,88.03
2019-05-28T12:06:28.021Z,87.87
2019-05-28T12:07:28.013Z,88.48
2019-05-28T12:08:27.989Z,89.39
2019-05-28T12:09:27.973Z,89.35
2019-05-28T12:10:27.976Z,88.48
2019-05-28T12:11:27.962Z,88.95
2019-05-28T12:12:27.941Z,89.55
2019-05-28T12:13:27.953Z,88.54
2019-05-28T12:14:27.933Z,88.40
2019-05-28T12:15:27.935Z,87.08
2019-05-28T12:16:27.901Z,84.08
2019-05-28T12:17:41.538Z,86.21
2019-05-28T12:18:28.920Z,87.52
2019-05-28T12:19:27.878Z,88.70
2019-05-28T12:20:27.854Z,88.66
2019-05-28T12:21:27.856Z,87.24
2019-05-28T12:22:27.832Z,86.13
2019-05-28T12:23:27.821Z,87.24
2019-05-28T12:24:28.735Z,87.34
2019-05-28T12:25:27.827Z,86.08
2019-05-28T12:26:27.820Z,85.38
2019-05-28T12:27:27.874Z,84.16
2019-05-28T12:28:37.560Z,82.14
2019-05-28T12:29:28.755Z,84.50
2019-05-28T12:30:27.761Z,82.84
2019-05-28T12:31:34.801Z,84.20
2019-05-28T12:32:27.720Z,85.27
2019-05-28T12:33:27.920Z,87.00
2019-05-28T12:34:27.699Z,88.11
2019-05-28T12:35:30.001Z,84.36
2019-05-28T12:36:27.674Z,83.01
2019-05-28T12:37:46.333Z,83.41
2019-05-28T12:38:28.683Z,83.51
2019-05-28T12:39:27.650Z,83.61
2019-05-28T12:40:27.631Z,84.67
2019-05-28T12:41:27.624Z,86.05
2019-05-28T12:42:27.807Z,83.31
2019-05-28T12:43:27.636Z,83.25
2019-05-28T12:44:41.148Z,85.58
2019-05-28T12:45:35.547Z,83.45
2019-05-28T12:46:28.678Z,82.14
2019-05-28T12:47:27.742Z,84.97
2019-05-28T12:48:27.698Z,84.77
2019-05-28T12:49:27.707Z,84.20
2019-05-28T12:50:27.663Z,85.21
2019-05-28T12:51:27.689Z,83.39
2019-05-28T12:52:27.653Z,86.53
2019-05-28T12:53:48.324Z,84.91